sensor_id;sensor_type;location;lat;lon;timestamp;temperature;humidity
9410;DHT22;4744;52.576;13.568;2024-02-15T00:00:10;8.20;99.90
9410;DHT22;4744;52.576;13.568;2024-02-15T00:02:37;8.20;99.90
9410;DHT22;4744;52.576;13.568;2024-02-15T00:05:07;8.20;99.90
9410;DHT22;4744;52.576;13.568;2024-02-15T00:07:34;8.20;99.90
9410;DHT22;4744;52.576;13.568;2024-02-15T00:10:02;8.10;99.90
9410;DHT22;4744;52.576;13.568;2024-02-15T00:12:30;8.20;99.90
9410;DHT22;4744;52.576;13.568;2024-02-15T00:14:57;8.10;99.90
9410;DHT22;4744;52.576;13.568;2024-02-15T00:17:24;8.20;99.90
9410;DHT22;4744;52.576;13.568;2024-02-15T00:19:51;8.20;99.90
9410;DHT22;4744;52.576;13.568;2024-02-15T00:22:19;8.20;99.90
9410;DHT22;4744;52.576;13.568;2024-02-15T00:24:46;8.10;99.90
9410;DHT22;4744;52.576;13.568;2024-02-15T00:27:14;8.10;99.90
9410;DHT22;4744;52.576;13.568;2024-02-15T00:29:41;8.20;99.90
9410;DHT22;4744;52.576;13.568;2024-02-15T00:32:08;8.20;99.90
9410;DHT22;4744;52.576;13.568;2024-02-15T00:34:36;8.20;99.90
9410;DHT22;4744;52.576;13.568;2024-02-15T00:37:04;8.20;99.90
9410;DHT22;4744;52.576;13.568;2024-02-15T00:39:32;8.20;99.90
9410;DHT22;4744;52.576;13.568;2024-02-15T00:41:59;8.20;99.90
9410;DHT22;4744;52.576;13.568;2024-02-15T00:44:26;8.10;99.90
9410;DHT22;4744;52.576;13.568;2024-02-15T00:46:53;8.20;99.90
9410;DHT22;4744;52.576;13.568;2024-02-15T00:49:21;8.20;99.90
9410;DHT22;4744;52.576;13.568;2024-02-15T00:51:48;8.20;99.90
9410;DHT22;4744;52.576;13.568;2024-02-15T00:54:15;8.20;99.90
9410;DHT22;4744;52.576;13.568;2024-02-15T00:56:44;8.20;99.90
9410;DHT22;4744;52.576;13.568;2024-02-15T00:59:11;8.20;99.90
9410;DHT22;4744;52.576;13.568;2024-02-15T01:01:38;8.20;99.90
9410;DHT22;4744;52.576;13.568;2024-02-15T01:04:06;8.20;99.90
9410;DHT22;4744;52.576;13.568;2024-02-15T01:06:33;8.10;99.90
9410;DHT22;4744;52.576;13.568;2024-02-15T01:09:00;8.20;99.90
9410;DHT22;4744;52.576;13.568;2024-02-15T01:11:29;8.10;99.90
9410;DHT22;4744;52.576;13.568;2024-02-15T01:13:58;8.10;99.90
9410;DHT22;4744;52.576;13.568;2024-02-15T01:16:25;8.20;99.90
9410;DHT22;4744;52.576;13.568;2024-02-15T01:18:52;8.20;99.90
9410;DHT22;4744;52.576;13.568;2024-02-15T01:21:20;8.20;99.90
9410;DHT22;4744;52.576;13.568;2024-02-15T01:23:48;8.20;99.90
9410;DHT22;4744;52.576;13.568;2024-02-15T01:26:15;8.20;99.90
9410;DHT22;4744;52.576;13.568;2024-02-15T01:28:42;8.20;99.90
9410;DHT22;4744;52.576;13.568;2024-02-15T01:31:10;8.10;99.90
9410;DHT22;4744;52.576;13.568;2024-02-15T01:33:38;8.20;99.90
9410;DHT22;4744;52.576;13.568;2024-02-15T01:36:06;8.20;99.90
9410;DHT22;4744;52.576;13.568;2024-02-15T01:38:33;8.20;99.90
9410;DHT22;4744;52.576;13.568;2024-02-15T01:41:00;8.20;99.90
9410;DHT22;4744;52.576;13.568;2024-02-15T01:43:27;8.20;99.90
9410;DHT22;4744;52.576;13.568;2024-02-15T01:45:56;8.20;99.90
9410;DHT22;4744;52.576;13.568;2024-02-15T01:48:29;8.20;99.90
9410;DHT22;4744;52.576;13.568;2024-02-15T01:50:56;8.10;99.90
9410;DHT22;4744;52.576;13.568;2024-02-15T01:53:24;8.10;99.90
9410;DHT22;4744;52.576;13.568;2024-02-15T01:55:53;8.10;99.90
9410;DHT22;4744;52.576;13.568;2024-02-15T01:58:23;8.10;99.90
9410;DHT22;4744;52.576;13.568;2024-02-15T02:00:51;8.10;99.90
9410;DHT22;4744;52.576;13.568;2024-02-15T02:03:21;8.10;99.90
9410;DHT22;4744;52.576;13.568;2024-02-15T02:05:49;8.20;99.90
9410;DHT22;4744;52.576;13.568;2024-02-15T02:08:16;8.20;99.90
9410;DHT22;4744;52.576;13.568;2024-02-15T02:10:43;8.20;99.90
9410;DHT22;4744;52.576;13.568;2024-02-15T02:13:11;8.20;99.90
9410;DHT22;4744;52.576;13.568;2024-02-15T02:15:38;8.10;99.90
9410;DHT22;4744;52.576;13.568;2024-02-15T02:18:05;8.20;99.90
9410;DHT22;4744;52.576;13.568;2024-02-15T02:20:34;8.20;99.90
9410;DHT22;4744;52.576;13.568;2024-02-15T02:23:06;8.20;99.90
9410;DHT22;4744;52.576;13.568;2024-02-15T02:25:35;8.20;99.90
9410;DHT22;4744;52.576;13.568;2024-02-15T02:28:02;8.20;99.90
9410;DHT22;4744;52.576;13.568;2024-02-15T02:30:29;8.20;99.90
9410;DHT22;4744;52.576;13.568;2024-02-15T02:32:56;8.20;99.90
9410;DHT22;4744;52.576;13.568;2024-02-15T02:35:24;8.20;99.90
9410;DHT22;4744;52.576;13.568;2024-02-15T02:37:52;8.20;99.90
9410;DHT22;4744;52.576;13.568;2024-02-15T02:40:19;8.20;99.90
9410;DHT22;4744;52.576;13.568;2024-02-15T02:42:49;8.20;99.90
9410;DHT22;4744;52.576;13.568;2024-02-15T02:45:17;8.20;99.90
9410;DHT22;4744;52.576;13.568;2024-02-15T02:47:45;8.20;99.90
9410;DHT22;4744;52.576;13.568;2024-02-15T02:50:12;8.20;99.90
9410;DHT22;4744;52.576;13.568;2024-02-15T02:52:39;8.20;99.90
9410;DHT22;4744;52.576;13.568;2024-02-15T02:55:07;8.20;99.90
9410;DHT22;4744;52.576;13.568;2024-02-15T02:57:34;8.20;99.90
9410;DHT22;4744;52.576;13.568;2024-02-15T03:00:06;8.20;99.90
9410;DHT22;4744;52.576;13.568;2024-02-15T03:02:36;8.20;99.90
9410;DHT22;4744;52.576;13.568;2024-02-15T03:05:03;8.20;99.90
9410;DHT22;4744;52.576;13.568;2024-02-15T03:07:32;8.20;99.90
9410;DHT22;4744;52.576;13.568;2024-02-15T03:09:59;8.20;99.90
9410;DHT22;4744;52.576;13.568;2024-02-15T03:12:26;8.30;99.90
9410;DHT22;4744;52.576;13.568;2024-02-15T03:14:54;8.30;99.90
9410;DHT22;4744;52.576;13.568;2024-02-15T03:17:23;8.20;99.90
9410;DHT22;4744;52.576;13.568;2024-02-15T03:19:50;8.20;99.90
9410;DHT22;4744;52.576;13.568;2024-02-15T03:22:17;8.20;99.90
9410;DHT22;4744;52.576;13.568;2024-02-15T03:24:44;8.20;99.90
9410;DHT22;4744;52.576;13.568;2024-02-15T03:27:11;8.30;99.90
9410;DHT22;4744;52.576;13.568;2024-02-15T03:29:38;8.30;99.90
9410;DHT22;4744;52.576;13.568;2024-02-15T03:32:06;8.20;99.90
9410;DHT22;4744;52.576;13.568;2024-02-15T03:34:34;8.20;99.90
9410;DHT22;4744;52.576;13.568;2024-02-15T03:37:01;8.30;99.90
9410;DHT22;4744;52.576;13.568;2024-02-15T03:39:30;8.30;99.90
9410;DHT22;4744;52.576;13.568;2024-02-15T03:41:58;8.30;99.90
9410;DHT22;4744;52.576;13.568;2024-02-15T03:44:25;8.30;99.90
9410;DHT22;4744;52.576;13.568;2024-02-15T03:46:52;8.30;99.90
9410;DHT22;4744;52.576;13.568;2024-02-15T03:49:20;8.30;99.90
9410;DHT22;4744;52.576;13.568;2024-02-15T03:51:49;8.30;99.90
9410;DHT22;4744;52.576;13.568;2024-02-15T03:54:16;8.30;99.90
9410;DHT22;4744;52.576;13.568;2024-02-15T03:56:47;8.30;99.90
9410;DHT22;4744;52.576;13.568;2024-02-15T03:59:17;8.30;99.90
9410;DHT22;4744;52.576;13.568;2024-02-15T04:01:45;8.30;99.90
9410;DHT22;4744;52.576;13.568;2024-02-15T04:04:12;8.40;99.90
9410;DHT22;4744;52.576;13.568;2024-02-15T04:06:39;8.40;99.90
9410;DHT22;4744;52.576;13.568;2024-02-15T04:09:09;8.40;99.90
9410;DHT22;4744;52.576;13.568;2024-02-15T04:11:37;8.30;99.90
9410;DHT22;4744;52.576;13.568;2024-02-15T04:14:04;8.30;99.90
9410;DHT22;4744;52.576;13.568;2024-02-15T04:16:31;8.30;99.90
9410;DHT22;4744;52.576;13.568;2024-02-15T04:18:59;8.30;99.90
9410;DHT22;4744;52.576;13.568;2024-02-15T04:21:27;8.30;99.90
9410;DHT22;4744;52.576;13.568;2024-02-15T04:23:54;8.30;99.90
9410;DHT22;4744;52.576;13.568;2024-02-15T04:26:22;8.30;99.90
9410;DHT22;4744;52.576;13.568;2024-02-15T04:28:52;8.30;99.90
9410;DHT22;4744;52.576;13.568;2024-02-15T04:31:19;8.30;99.90
9410;DHT22;4744;52.576;13.568;2024-02-15T04:33:52;8.40;99.90
9410;DHT22;4744;52.576;13.568;2024-02-15T04:36:19;8.40;99.90
9410;DHT22;4744;52.576;13.568;2024-02-15T04:38:49;8.30;99.90
9410;DHT22;4744;52.576;13.568;2024-02-15T04:41:17;8.30;99.90
9410;DHT22;4744;52.576;13.568;2024-02-15T04:43:50;8.40;99.90
9410;DHT22;4744;52.576;13.568;2024-02-15T04:46:16;8.30;99.90
9410;DHT22;4744;52.576;13.568;2024-02-15T04:48:46;8.30;99.90
9410;DHT22;4744;52.576;13.568;2024-02-15T04:51:14;8.30;99.90
9410;DHT22;4744;52.576;13.568;2024-02-15T04:53:41;8.30;99.90
9410;DHT22;4744;52.576;13.568;2024-02-15T04:56:08;8.30;99.90
9410;DHT22;4744;52.576;13.568;2024-02-15T04:58:39;8.40;99.90
9410;DHT22;4744;52.576;13.568;2024-02-15T05:01:16;8.40;99.90
9410;DHT22;4744;52.576;13.568;2024-02-15T05:03:43;8.40;99.90
9410;DHT22;4744;52.576;13.568;2024-02-15T05:06:10;8.40;99.90
9410;DHT22;4744;52.576;13.568;2024-02-15T05:08:38;8.40;99.90
9410;DHT22;4744;52.576;13.568;2024-02-15T05:11:08;8.40;99.90
9410;DHT22;4744;52.576;13.568;2024-02-15T05:13:38;8.40;99.90
9410;DHT22;4744;52.576;13.568;2024-02-15T05:16:06;8.40;99.90
9410;DHT22;4744;52.576;13.568;2024-02-15T05:18:34;8.40;99.90
9410;DHT22;4744;52.576;13.568;2024-02-15T05:21:01;8.40;99.90
9410;DHT22;4744;52.576;13.568;2024-02-15T05:23:29;8.50;99.90
9410;DHT22;4744;52.576;13.568;2024-02-15T05:25:56;8.50;99.90
9410;DHT22;4744;52.576;13.568;2024-02-15T05:28:23;8.50;99.90
9410;DHT22;4744;52.576;13.568;2024-02-15T05:31:09;8.50;99.90
9410;DHT22;4744;52.576;13.568;2024-02-15T05:33:38;8.50;99.90
9410;DHT22;4744;52.576;13.568;2024-02-15T05:36:06;8.50;99.90
9410;DHT22;4744;52.576;13.568;2024-02-15T05:38:34;8.50;99.90
9410;DHT22;4744;52.576;13.568;2024-02-15T05:41:01;8.50;99.90
9410;DHT22;4744;52.576;13.568;2024-02-15T05:43:28;8.50;99.90
9410;DHT22;4744;52.576;13.568;2024-02-15T05:45:55;8.50;99.90
9410;DHT22;4744;52.576;13.568;2024-02-15T05:48:23;8.50;99.90
9410;DHT22;4744;52.576;13.568;2024-02-15T05:50:51;8.50;99.90
9410;DHT22;4744;52.576;13.568;2024-02-15T05:53:20;8.50;99.90
9410;DHT22;4744;52.576;13.568;2024-02-15T05:55:47;8.60;99.90
9410;DHT22;4744;52.576;13.568;2024-02-15T05:58:15;8.60;99.90
9410;DHT22;4744;52.576;13.568;2024-02-15T06:00:42;8.60;99.90
9410;DHT22;4744;52.576;13.568;2024-02-15T06:03:10;8.60;99.90
9410;DHT22;4744;52.576;13.568;2024-02-15T06:05:38;8.60;99.90
9410;DHT22;4744;52.576;13.568;2024-02-15T06:08:07;8.60;99.90
9410;DHT22;4744;52.576;13.568;2024-02-15T06:10:34;8.70;99.90
9410;DHT22;4744;52.576;13.568;2024-02-15T06:13:00;8.80;99.90
9410;DHT22;4744;52.576;13.568;2024-02-15T06:15:27;8.70;99.90
9410;DHT22;4744;52.576;13.568;2024-02-15T06:17:54;8.60;99.90
9410;DHT22;4744;52.576;13.568;2024-02-15T06:20:22;8.70;99.90
9410;DHT22;4744;52.576;13.568;2024-02-15T06:22:50;8.70;99.90
9410;DHT22;4744;52.576;13.568;2024-02-15T06:25:19;8.70;99.90
9410;DHT22;4744;52.576;13.568;2024-02-15T06:27:47;8.70;99.90
9410;DHT22;4744;52.576;13.568;2024-02-15T06:30:14;8.70;99.90
9410;DHT22;4744;52.576;13.568;2024-02-15T06:32:59;8.70;99.90
9410;DHT22;4744;52.576;13.568;2024-02-15T06:35:43;8.70;99.90
9410;DHT22;4744;52.576;13.568;2024-02-15T06:38:28;8.80;99.90
9410;DHT22;4744;52.576;13.568;2024-02-15T06:41:14;8.80;99.90
9410;DHT22;4744;52.576;13.568;2024-02-15T06:43:41;8.90;99.90
9410;DHT22;4744;52.576;13.568;2024-02-15T06:46:08;8.90;99.90
9410;DHT22;4744;52.576;13.568;2024-02-15T06:48:36;8.80;99.90
9410;DHT22;4744;52.576;13.568;2024-02-15T06:51:03;8.90;99.90
9410;DHT22;4744;52.576;13.568;2024-02-15T06:53:31;8.90;99.90
9410;DHT22;4744;52.576;13.568;2024-02-15T06:55:58;8.90;99.90
9410;DHT22;4744;52.576;13.568;2024-02-15T06:58:26;8.90;99.90
9410;DHT22;4744;52.576;13.568;2024-02-15T07:00:54;8.90;99.90
9410;DHT22;4744;52.576;13.568;2024-02-15T07:03:21;8.90;99.90
9410;DHT22;4744;52.576;13.568;2024-02-15T07:05:49;8.90;99.90
9410;DHT22;4744;52.576;13.568;2024-02-15T07:08:16;9.00;99.90
9410;DHT22;4744;52.576;13.568;2024-02-15T07:10:43;9.00;99.90
9410;DHT22;4744;52.576;13.568;2024-02-15T07:13:10;9.00;99.90
9410;DHT22;4744;52.576;13.568;2024-02-15T07:15:38;9.00;99.90
9410;DHT22;4744;52.576;13.568;2024-02-15T07:18:06;9.00;99.90
9410;DHT22;4744;52.576;13.568;2024-02-15T07:20:33;9.00;99.90
9410;DHT22;4744;52.576;13.568;2024-02-15T07:23:00;9.00;99.90
9410;DHT22;4744;52.576;13.568;2024-02-15T07:25:27;9.00;99.90
9410;DHT22;4744;52.576;13.568;2024-02-15T07:27:54;8.90;99.90
9410;DHT22;4744;52.576;13.568;2024-02-15T07:30:22;9.00;99.90
9410;DHT22;4744;52.576;13.568;2024-02-15T07:32:51;9.00;99.90
9410;DHT22;4744;52.576;13.568;2024-02-15T07:35:18;9.00;99.90
9410;DHT22;4744;52.576;13.568;2024-02-15T07:37:54;9.00;99.90
9410;DHT22;4744;52.576;13.568;2024-02-15T07:40:24;9.00;99.90
9410;DHT22;4744;52.576;13.568;2024-02-15T07:42:56;9.00;99.90
9410;DHT22;4744;52.576;13.568;2024-02-15T07:45:23;9.00;99.90
9410;DHT22;4744;52.576;13.568;2024-02-15T07:47:51;9.00;99.90
9410;DHT22;4744;52.576;13.568;2024-02-15T07:50:19;9.00;99.90
9410;DHT22;4744;52.576;13.568;2024-02-15T07:52:48;9.10;99.90
9410;DHT22;4744;52.576;13.568;2024-02-15T07:55:16;9.10;99.90
9410;DHT22;4744;52.576;13.568;2024-02-15T07:57:43;9.10;99.90
9410;DHT22;4744;52.576;13.568;2024-02-15T08:00:12;9.10;99.90
9410;DHT22;4744;52.576;13.568;2024-02-15T08:02:42;9.20;99.90
9410;DHT22;4744;52.576;13.568;2024-02-15T08:05:11;9.20;99.90
9410;DHT22;4744;52.576;13.568;2024-02-15T08:07:42;9.20;99.90
9410;DHT22;4744;52.576;13.568;2024-02-15T08:10:10;9.20;99.90
9410;DHT22;4744;52.576;13.568;2024-02-15T08:12:39;9.20;99.90
9410;DHT22;4744;52.576;13.568;2024-02-15T08:15:07;9.20;99.90
9410;DHT22;4744;52.576;13.568;2024-02-15T08:17:38;9.20;99.90
9410;DHT22;4744;52.576;13.568;2024-02-15T08:20:07;9.30;99.90
9410;DHT22;4744;52.576;13.568;2024-02-15T08:22:35;9.30;99.90
9410;DHT22;4744;52.576;13.568;2024-02-15T08:25:06;9.40;99.90
9410;DHT22;4744;52.576;13.568;2024-02-15T08:27:37;9.40;99.90
9410;DHT22;4744;52.576;13.568;2024-02-15T08:30:07;9.40;99.90
9410;DHT22;4744;52.576;13.568;2024-02-15T08:32:36;9.40;99.90
9410;DHT22;4744;52.576;13.568;2024-02-15T08:35:03;9.40;99.90
9410;DHT22;4744;52.576;13.568;2024-02-15T08:37:31;9.40;99.90
9410;DHT22;4744;52.576;13.568;2024-02-15T08:40:01;9.50;99.90
9410;DHT22;4744;52.576;13.568;2024-02-15T08:42:28;9.50;99.90
9410;DHT22;4744;52.576;13.568;2024-02-15T08:44:55;9.50;99.90
9410;DHT22;4744;52.576;13.568;2024-02-15T08:47:22;9.50;99.90
9410;DHT22;4744;52.576;13.568;2024-02-15T08:49:49;9.50;99.90
9410;DHT22;4744;52.576;13.568;2024-02-15T08:52:16;9.50;99.90
9410;DHT22;4744;52.576;13.568;2024-02-15T08:54:44;9.50;99.90
9410;DHT22;4744;52.576;13.568;2024-02-15T08:57:12;9.50;99.90
9410;DHT22;4744;52.576;13.568;2024-02-15T08:59:39;9.60;99.90
9410;DHT22;4744;52.576;13.568;2024-02-15T09:02:08;9.50;99.90
9410;DHT22;4744;52.576;13.568;2024-02-15T09:04:35;9.60;99.90
9410;DHT22;4744;52.576;13.568;2024-02-15T09:07:02;9.60;99.90
9410;DHT22;4744;52.576;13.568;2024-02-15T09:09:30;9.70;99.90
9410;DHT22;4744;52.576;13.568;2024-02-15T09:12:01;9.80;99.90
9410;DHT22;4744;52.576;13.568;2024-02-15T09:14:32;9.80;99.90
9410;DHT22;4744;52.576;13.568;2024-02-15T09:16:59;9.80;99.90
9410;DHT22;4744;52.576;13.568;2024-02-15T09:19:27;9.80;99.90
9410;DHT22;4744;52.576;13.568;2024-02-15T09:21:53;9.80;99.90
9410;DHT22;4744;52.576;13.568;2024-02-15T09:24:20;9.80;99.90
9410;DHT22;4744;52.576;13.568;2024-02-15T09:26:50;9.90;99.90
9410;DHT22;4744;52.576;13.568;2024-02-15T09:29:18;10.00;99.90
9410;DHT22;4744;52.576;13.568;2024-02-15T09:31:47;10.00;99.90
9410;DHT22;4744;52.576;13.568;2024-02-15T09:34:14;10.00;99.90
9410;DHT22;4744;52.576;13.568;2024-02-15T09:36:41;10.00;99.90
9410;DHT22;4744;52.576;13.568;2024-02-15T09:39:08;10.10;99.90
9410;DHT22;4744;52.576;13.568;2024-02-15T09:41:38;10.10;99.90
9410;DHT22;4744;52.576;13.568;2024-02-15T09:44:06;10.10;99.90
9410;DHT22;4744;52.576;13.568;2024-02-15T09:46:35;10.10;99.90
9410;DHT22;4744;52.576;13.568;2024-02-15T09:49:05;10.10;99.90
9410;DHT22;4744;52.576;13.568;2024-02-15T09:51:33;10.20;99.90
9410;DHT22;4744;52.576;13.568;2024-02-15T09:54:01;10.20;99.90
9410;DHT22;4744;52.576;13.568;2024-02-15T09:56:31;10.30;99.90
9410;DHT22;4744;52.576;13.568;2024-02-15T09:58:59;10.30;99.90
9410;DHT22;4744;52.576;13.568;2024-02-15T10:01:27;10.20;99.90
9410;DHT22;4744;52.576;13.568;2024-02-15T10:03:58;10.30;99.90
9410;DHT22;4744;52.576;13.568;2024-02-15T10:06:27;10.30;99.90
9410;DHT22;4744;52.576;13.568;2024-02-15T10:08:54;10.30;99.90
9410;DHT22;4744;52.576;13.568;2024-02-15T10:11:53;10.20;99.90
9410;DHT22;4744;52.576;13.568;2024-02-15T10:14:21;10.20;99.90
9410;DHT22;4744;52.576;13.568;2024-02-15T10:16:48;10.20;99.90
9410;DHT22;4744;52.576;13.568;2024-02-15T10:19:15;10.20;99.90
9410;DHT22;4744;52.576;13.568;2024-02-15T10:21:45;10.20;99.90
9410;DHT22;4744;52.576;13.568;2024-02-15T10:24:12;10.20;99.90
9410;DHT22;4744;52.576;13.568;2024-02-15T10:26:39;10.20;99.90
9410;DHT22;4744;52.576;13.568;2024-02-15T10:29:08;10.20;99.90
9410;DHT22;4744;52.576;13.568;2024-02-15T10:31:36;10.20;99.90
9410;DHT22;4744;52.576;13.568;2024-02-15T10:34:05;10.20;99.90
9410;DHT22;4744;52.576;13.568;2024-02-15T10:36:33;10.30;99.90
9410;DHT22;4744;52.576;13.568;2024-02-15T10:39:15;10.40;99.90
9410;DHT22;4744;52.576;13.568;2024-02-15T10:41:46;10.50;99.90
9410;DHT22;4744;52.576;13.568;2024-02-15T10:44:18;10.50;99.90
9410;DHT22;4744;52.576;13.568;2024-02-15T10:46:46;10.60;99.90
9410;DHT22;4744;52.576;13.568;2024-02-15T10:49:20;10.70;99.90
9410;DHT22;4744;52.576;13.568;2024-02-15T10:51:51;10.80;99.90
9410;DHT22;4744;52.576;13.568;2024-02-15T10:54:40;10.80;99.90
9410;DHT22;4744;52.576;13.568;2024-02-15T10:57:10;10.90;99.90
9410;DHT22;4744;52.576;13.568;2024-02-15T10:59:38;10.90;99.90
9410;DHT22;4744;52.576;13.568;2024-02-15T11:02:26;10.90;99.90
9410;DHT22;4744;52.576;13.568;2024-02-15T11:04:58;11.00;99.90
9410;DHT22;4744;52.576;13.568;2024-02-15T11:07:28;11.00;99.90
9410;DHT22;4744;52.576;13.568;2024-02-15T11:09:57;11.00;99.90
9410;DHT22;4744;52.576;13.568;2024-02-15T11:12:24;11.10;99.90
9410;DHT22;4744;52.576;13.568;2024-02-15T11:14:52;11.10;99.90
9410;DHT22;4744;52.576;13.568;2024-02-15T11:17:44;11.10;99.90
9410;DHT22;4744;52.576;13.568;2024-02-15T11:20:46;11.20;99.90
9410;DHT22;4744;52.576;13.568;2024-02-15T11:23:26;11.40;99.90
9410;DHT22;4744;52.576;13.568;2024-02-15T11:25:55;11.40;99.90
9410;DHT22;4744;52.576;13.568;2024-02-15T11:28:39;11.50;99.90
9410;DHT22;4744;52.576;13.568;2024-02-15T11:31:08;11.50;99.90
9410;DHT22;4744;52.576;13.568;2024-02-15T11:33:38;11.50;99.90
9410;DHT22;4744;52.576;13.568;2024-02-15T11:36:06;11.50;99.90
9410;DHT22;4744;52.576;13.568;2024-02-15T11:38:33;11.50;99.90
9410;DHT22;4744;52.576;13.568;2024-02-15T11:41:05;11.50;99.90
9410;DHT22;4744;52.576;13.568;2024-02-15T11:43:51;11.50;99.90
9410;DHT22;4744;52.576;13.568;2024-02-15T11:46:28;11.50;99.70
9410;DHT22;4744;52.576;13.568;2024-02-15T11:48:58;11.50;99.70
9410;DHT22;4744;52.576;13.568;2024-02-15T11:51:27;11.50;99.90
9410;DHT22;4744;52.576;13.568;2024-02-15T11:54:05;11.60;99.90
9410;DHT22;4744;52.576;13.568;2024-02-15T11:56:56;11.70;99.60
9410;DHT22;4744;52.576;13.568;2024-02-15T11:59:39;11.70;99.00
9410;DHT22;4744;52.576;13.568;2024-02-15T12:02:19;11.80;98.20
9410;DHT22;4744;52.576;13.568;2024-02-15T12:05:04;11.90;98.00
9410;DHT22;4744;52.576;13.568;2024-02-15T12:07:49;11.90;98.20
9410;DHT22;4744;52.576;13.568;2024-02-15T12:10:33;11.90;97.70
9410;DHT22;4744;52.576;13.568;2024-02-15T12:13:19;11.90;97.70
9410;DHT22;4744;52.576;13.568;2024-02-15T12:16:03;11.90;97.10
9410;DHT22;4744;52.576;13.568;2024-02-15T12:18:49;11.90;97.60
9410;DHT22;4744;52.576;13.568;2024-02-15T12:21:19;11.90;97.40
9410;DHT22;4744;52.576;13.568;2024-02-15T12:23:48;11.90;97.10
9410;DHT22;4744;52.576;13.568;2024-02-15T12:26:18;11.90;97.50
9410;DHT22;4744;52.576;13.568;2024-02-15T12:28:51;11.90;97.00
9410;DHT22;4744;52.576;13.568;2024-02-15T12:31:20;11.90;97.20
9410;DHT22;4744;52.576;13.568;2024-02-15T12:34:02;11.90;97.30
9410;DHT22;4744;52.576;13.568;2024-02-15T12:36:32;11.80;97.30
9410;DHT22;4744;52.576;13.568;2024-02-15T12:39:00;11.80;97.50
9410;DHT22;4744;52.576;13.568;2024-02-15T12:41:27;11.70;98.00
9410;DHT22;4744;52.576;13.568;2024-02-15T12:43:55;11.70;98.40
9410;DHT22;4744;52.576;13.568;2024-02-15T12:46:23;11.80;98.40
9410;DHT22;4744;52.576;13.568;2024-02-15T12:49:06;11.80;98.40
9410;DHT22;4744;52.576;13.568;2024-02-15T12:51:33;11.80;98.20
9410;DHT22;4744;52.576;13.568;2024-02-15T12:54:08;11.90;98.10
9410;DHT22;4744;52.576;13.568;2024-02-15T12:56:36;11.90;97.50
9410;DHT22;4744;52.576;13.568;2024-02-15T12:59:04;11.90;97.30
9410;DHT22;4744;52.576;13.568;2024-02-15T13:01:32;11.90;97.30
9410;DHT22;4744;52.576;13.568;2024-02-15T13:03:59;11.90;97.30
9410;DHT22;4744;52.576;13.568;2024-02-15T13:06:26;11.90;97.10
9410;DHT22;4744;52.576;13.568;2024-02-15T13:08:54;11.90;97.10
9410;DHT22;4744;52.576;13.568;2024-02-15T13:11:21;11.90;97.10
9410;DHT22;4744;52.576;13.568;2024-02-15T13:13:49;11.90;97.20
9410;DHT22;4744;52.576;13.568;2024-02-15T13:16:17;12.00;96.80
9410;DHT22;4744;52.576;13.568;2024-02-15T13:18:45;12.00;96.00
9410;DHT22;4744;52.576;13.568;2024-02-15T13:21:12;12.00;96.00
9410;DHT22;4744;52.576;13.568;2024-02-15T13:23:39;12.10;95.80
9410;DHT22;4744;52.576;13.568;2024-02-15T13:26:06;12.10;95.70
9410;DHT22;4744;52.576;13.568;2024-02-15T13:28:33;12.10;95.60
9410;DHT22;4744;52.576;13.568;2024-02-15T13:31:00;12.10;95.10
9410;DHT22;4744;52.576;13.568;2024-02-15T13:33:29;12.10;95.40
9410;DHT22;4744;52.576;13.568;2024-02-15T13:35:57;12.10;95.50
9410;DHT22;4744;52.576;13.568;2024-02-15T13:38:24;12.10;95.80
9410;DHT22;4744;52.576;13.568;2024-02-15T13:40:52;12.10;95.10
9410;DHT22;4744;52.576;13.568;2024-02-15T13:43:20;12.20;95.20
9410;DHT22;4744;52.576;13.568;2024-02-15T13:45:47;12.10;95.00
9410;DHT22;4744;52.576;13.568;2024-02-15T13:48:14;12.20;94.80
9410;DHT22;4744;52.576;13.568;2024-02-15T13:50:43;12.20;94.70
9410;DHT22;4744;52.576;13.568;2024-02-15T13:53:10;12.20;94.90
9410;DHT22;4744;52.576;13.568;2024-02-15T13:55:39;12.20;94.90
9410;DHT22;4744;52.576;13.568;2024-02-15T13:58:06;12.20;95.00
9410;DHT22;4744;52.576;13.568;2024-02-15T14:00:37;12.20;95.10
9410;DHT22;4744;52.576;13.568;2024-02-15T14:03:08;12.20;94.80
9410;DHT22;4744;52.576;13.568;2024-02-15T14:05:36;12.20;94.80
9410;DHT22;4744;52.576;13.568;2024-02-15T14:08:06;12.30;94.70
9410;DHT22;4744;52.576;13.568;2024-02-15T14:10:35;12.20;94.30
9410;DHT22;4744;52.576;13.568;2024-02-15T14:13:02;12.30;94.30
9410;DHT22;4744;52.576;13.568;2024-02-15T14:15:31;12.30;94.30
9410;DHT22;4744;52.576;13.568;2024-02-15T14:17:59;12.30;94.20
9410;DHT22;4744;52.576;13.568;2024-02-15T14:20:26;12.30;94.30
9410;DHT22;4744;52.576;13.568;2024-02-15T14:22:53;12.30;94.50
9410;DHT22;4744;52.576;13.568;2024-02-15T14:25:23;12.30;94.90
9410;DHT22;4744;52.576;13.568;2024-02-15T14:27:51;12.30;94.20
9410;DHT22;4744;52.576;13.568;2024-02-15T14:30:19;12.30;94.40
9410;DHT22;4744;52.576;13.568;2024-02-15T14:33:04;12.30;94.40
9410;DHT22;4744;52.576;13.568;2024-02-15T14:35:35;12.30;94.40
9410;DHT22;4744;52.576;13.568;2024-02-15T14:38:03;12.30;94.40
9410;DHT22;4744;52.576;13.568;2024-02-15T14:40:34;12.30;94.00
9410;DHT22;4744;52.576;13.568;2024-02-15T14:43:02;12.30;93.80
9410;DHT22;4744;52.576;13.568;2024-02-15T14:45:30;12.30;93.60
9410;DHT22;4744;52.576;13.568;2024-02-15T14:47:58;12.30;93.60
9410;DHT22;4744;52.576;13.568;2024-02-15T14:50:24;12.30;93.50
9410;DHT22;4744;52.576;13.568;2024-02-15T14:52:52;12.30;93.50
9410;DHT22;4744;52.576;13.568;2024-02-15T14:55:19;12.20;94.10
9410;DHT22;4744;52.576;13.568;2024-02-15T14:57:48;12.20;94.20
9410;DHT22;4744;52.576;13.568;2024-02-15T15:00:16;12.10;94.50
9410;DHT22;4744;52.576;13.568;2024-02-15T15:02:44;12.10;94.50
9410;DHT22;4744;52.576;13.568;2024-02-15T15:05:12;12.10;94.80
9410;DHT22;4744;52.576;13.568;2024-02-15T15:07:56;12.10;94.70
9410;DHT22;4744;52.576;13.568;2024-02-15T15:10:41;12.10;94.30
9410;DHT22;4744;52.576;13.568;2024-02-15T15:13:26;12.10;94.60
9410;DHT22;4744;52.576;13.568;2024-02-15T15:15:53;12.20;94.20
9410;DHT22;4744;52.576;13.568;2024-02-15T15:18:20;12.10;94.40
9410;DHT22;4744;52.576;13.568;2024-02-15T15:20:48;12.10;94.70
9410;DHT22;4744;52.576;13.568;2024-02-15T15:23:15;12.10;94.70
9410;DHT22;4744;52.576;13.568;2024-02-15T15:25:42;12.10;95.00
9410;DHT22;4744;52.576;13.568;2024-02-15T15:28:09;12.00;94.90
9410;DHT22;4744;52.576;13.568;2024-02-15T15:30:38;12.00;94.90
9410;DHT22;4744;52.576;13.568;2024-02-15T15:33:05;12.00;94.80
9410;DHT22;4744;52.576;13.568;2024-02-15T15:35:34;12.00;95.10
9410;DHT22;4744;52.576;13.568;2024-02-15T15:38:02;11.90;95.40
9410;DHT22;4744;52.576;13.568;2024-02-15T15:40:29;12.00;95.30
9410;DHT22;4744;52.576;13.568;2024-02-15T15:42:57;11.90;95.50
9410;DHT22;4744;52.576;13.568;2024-02-15T15:45:24;11.90;95.50
9410;DHT22;4744;52.576;13.568;2024-02-15T15:47:53;11.90;95.70
9410;DHT22;4744;52.576;13.568;2024-02-15T15:50:20;11.90;95.70
9410;DHT22;4744;52.576;13.568;2024-02-15T15:52:47;11.90;95.80
9410;DHT22;4744;52.576;13.568;2024-02-15T15:55:14;11.90;95.90
9410;DHT22;4744;52.576;13.568;2024-02-15T15:57:41;11.80;96.00
9410;DHT22;4744;52.576;13.568;2024-02-15T16:00:09;11.90;96.10
9410;DHT22;4744;52.576;13.568;2024-02-15T16:02:39;11.80;96.00
9410;DHT22;4744;52.576;13.568;2024-02-15T16:05:08;11.80;96.10
9410;DHT22;4744;52.576;13.568;2024-02-15T16:07:37;11.80;96.30